sensor_id;sensor_type;location;lat;lon;timestamp;temperature;humidity
21770;DHT22;11046;49.558;8.674;2023-03-30T00:02:22;14.70;71.70
21770;DHT22;11046;49.558;8.674;2023-03-30T00:05:23;14.70;72.20
21770;DHT22;11046;49.558;8.674;2023-03-30T00:08:26;14.60;72.50
21770;DHT22;11046;49.558;8.674;2023-03-30T00:11:27;14.60;72.80
21770;DHT22;11046;49.558;8.674;2023-03-30T00:14:28;14.60;73.00
21770;DHT22;11046;49.558;8.674;2023-03-30T00:17:29;14.60;73.20
21770;DHT22;11046;49.558;8.674;2023-03-30T00:20:30;14.60;73.40
21770;DHT22;11046;49.558;8.674;2023-03-30T00:23:34;14.60;73.50
21770;DHT22;11046;49.558;8.674;2023-03-30T00:26:34;14.60;73.70
21770;DHT22;11046;49.558;8.674;2023-03-30T00:29:35;14.60;73.80
21770;DHT22;11046;49.558;8.674;2023-03-30T00:32:36;14.60;73.80
21770;DHT22;11046;49.558;8.674;2023-03-30T00:35:36;14.60;74.00
21770;DHT22;11046;49.558;8.674;2023-03-30T00:38:37;14.60;74.10
21770;DHT22;11046;49.558;8.674;2023-03-30T00:41:38;14.60;74.10
21770;DHT22;11046;49.558;8.674;2023-03-30T00:45:18;14.60;74.20
21770;DHT22;11046;49.558;8.674;2023-03-30T00:48:36;14.50;75.70
21770;DHT22;11046;49.558;8.674;2023-03-30T00:51:39;14.40;75.00
21770;DHT22;11046;49.558;8.674;2023-03-30T00:54:41;14.30;75.10
21770;DHT22;11046;49.558;8.674;2023-03-30T00:57:42;14.30;75.20
21770;DHT22;11046;49.558;8.674;2023-03-30T01:00:44;14.30;75.30
21770;DHT22;11046;49.558;8.674;2023-03-30T01:03:48;14.30;75.50
21770;DHT22;11046;49.558;8.674;2023-03-30T01:06:50;14.20;75.80
21770;DHT22;11046;49.558;8.674;2023-03-30T01:09:51;14.20;76.00
21770;DHT22;11046;49.558;8.674;2023-03-30T01:12:52;14.20;76.30
21770;DHT22;11046;49.558;8.674;2023-03-30T01:27:05;14.60;75.20
21770;DHT22;11046;49.558;8.674;2023-03-30T01:37:43;14.80;74.50
21770;DHT22;11046;49.558;8.674;2023-03-30T01:40:42;14.90;74.20
21770;DHT22;11046;49.558;8.674;2023-03-30T01:47:37;14.80;74.30
21770;DHT22;11046;49.558;8.674;2023-03-30T01:50:41;14.80;74.20
21770;DHT22;11046;49.558;8.674;2023-03-30T01:57:08;15.00;74.10
21770;DHT22;11046;49.558;8.674;2023-03-30T02:00:15;14.90;74.00
21770;DHT22;11046;49.558;8.674;2023-03-30T02:03:21;15.00;74.10
21770;DHT22;11046;49.558;8.674;2023-03-30T02:06:32;14.90;74.20
21770;DHT22;11046;49.558;8.674;2023-03-30T02:09:39;14.90;74.30
21770;DHT22;11046;49.558;8.674;2023-03-30T02:12:41;15.00;74.50
21770;DHT22;11046;49.558;8.674;2023-03-30T02:15:47;15.00;74.40
21770;DHT22;11046;49.558;8.674;2023-03-30T02:18:49;15.00;74.50
21770;DHT22;11046;49.558;8.674;2023-03-30T02:21:50;14.90;74.80
21770;DHT22;11046;49.558;8.674;2023-03-30T02:24:54;14.90;75.00
21770;DHT22;11046;49.558;8.674;2023-03-30T02:27:55;14.90;75.40
21770;DHT22;11046;49.558;8.674;2023-03-30T02:30:56;14.80;76.20
21770;DHT22;11046;49.558;8.674;2023-03-30T02:34:29;14.70;77.20
21770;DHT22;11046;49.558;8.674;2023-03-30T02:40:51;14.40;79.20
21770;DHT22;11046;49.558;8.674;2023-03-30T02:51:20;14.10;83.40
21770;DHT22;11046;49.558;8.674;2023-03-30T02:55:04;14.00;83.60
21770;DHT22;11046;49.558;8.674;2023-03-30T02:58:37;13.90;83.80
21770;DHT22;11046;49.558;8.674;2023-03-30T03:01:55;13.90;84.10
21770;DHT22;11046;49.558;8.674;2023-03-30T03:04:59;13.90;84.40
21770;DHT22;11046;49.558;8.674;2023-03-30T03:08:24;13.80;84.70
21770;DHT22;11046;49.558;8.674;2023-03-30T03:11:28;13.80;85.30
21770;DHT22;11046;49.558;8.674;2023-03-30T03:14:28;13.80;85.70
21770;DHT22;11046;49.558;8.674;2023-03-30T03:17:30;13.80;86.20
21770;DHT22;11046;49.558;8.674;2023-03-30T03:20:34;13.80;86.70
21770;DHT22;11046;49.558;8.674;2023-03-30T03:23:36;13.80;86.90
21770;DHT22;11046;49.558;8.674;2023-03-30T03:26:38;13.70;87.70
21770;DHT22;11046;49.558;8.674;2023-03-30T03:29:39;13.60;88.00
21770;DHT22;11046;49.558;8.674;2023-03-30T03:32:40;13.60;88.10
21770;DHT22;11046;49.558;8.674;2023-03-30T03:35:41;13.60;88.80
21770;DHT22;11046;49.558;8.674;2023-03-30T03:38:46;13.50;89.80
21770;DHT22;11046;49.558;8.674;2023-03-30T03:41:48;13.50;90.00
21770;DHT22;11046;49.558;8.674;2023-03-30T03:44:48;13.40;90.10
21770;DHT22;11046;49.558;8.674;2023-03-30T03:47:50;13.40;90.20
21770;DHT22;11046;49.558;8.674;2023-03-30T03:50:56;13.50;90.20
21770;DHT22;11046;49.558;8.674;2023-03-30T03:53:59;13.50;90.50
21770;DHT22;11046;49.558;8.674;2023-03-30T03:56:59;13.50;90.50
21770;DHT22;11046;49.558;8.674;2023-03-30T04:00:02;13.40;90.70
21770;DHT22;11046;49.558;8.674;2023-03-30T04:03:12;13.30;90.80
21770;DHT22;11046;49.558;8.674;2023-03-30T04:06:13;13.40;91.00
21770;DHT22;11046;49.558;8.674;2023-03-30T04:09:14;13.30;91.20
21770;DHT22;11046;49.558;8.674;2023-03-30T04:12:33;13.30;91.30
21770;DHT22;11046;49.558;8.674;2023-03-30T04:15:58;13.20;91.50
21770;DHT22;11046;49.558;8.674;2023-03-30T04:19:20;13.20;91.60
21770;DHT22;11046;49.558;8.674;2023-03-30T04:22:34;13.20;91.70
21770;DHT22;11046;49.558;8.674;2023-03-30T04:26:03;13.00;91.90
21770;DHT22;11046;49.558;8.674;2023-03-30T04:29:30;13.00;92.20
21770;DHT22;11046;49.558;8.674;2023-03-30T04:32:50;12.90;92.40
21770;DHT22;11046;49.558;8.674;2023-03-30T04:36:20;12.90;92.50
21770;DHT22;11046;49.558;8.674;2023-03-30T04:39:41;12.90;92.60
21770;DHT22;11046;49.558;8.674;2023-03-30T04:43:07;12.90;92.60
21770;DHT22;11046;49.558;8.674;2023-03-30T04:46:35;12.80;92.80
21770;DHT22;11046;49.558;8.674;2023-03-30T04:49:47;12.80;92.90
21770;DHT22;11046;49.558;8.674;2023-03-30T04:53:10;12.80;93.10
21770;DHT22;11046;49.558;8.674;2023-03-30T04:56:31;12.80;93.10
21770;DHT22;11046;49.558;8.674;2023-03-30T04:59:43;12.80;93.20
21770;DHT22;11046;49.558;8.674;2023-03-30T05:02:56;12.80;93.40
21770;DHT22;11046;49.558;8.674;2023-03-30T05:06:16;12.70;93.60
21770;DHT22;11046;49.558;8.674;2023-03-30T05:09:35;12.70;93.80
21770;DHT22;11046;49.558;8.674;2023-03-30T05:12:55;12.80;93.80
21770;DHT22;11046;49.558;8.674;2023-03-30T05:16:09;12.70;93.80
21770;DHT22;11046;49.558;8.674;2023-03-30T05:19:21;12.70;94.00
21770;DHT22;11046;49.558;8.674;2023-03-30T05:22:22;12.70;94.10
21770;DHT22;11046;49.558;8.674;2023-03-30T05:25:45;12.70;94.30
21770;DHT22;11046;49.558;8.674;2023-03-30T05:29:06;12.70;94.40
21770;DHT22;11046;49.558;8.674;2023-03-30T05:32:25;12.70;94.60
21770;DHT22;11046;49.558;8.674;2023-03-30T05:35:41;12.70;94.70
21770;DHT22;11046;49.558;8.674;2023-03-30T05:39:10;12.70;94.90
21770;DHT22;11046;49.558;8.674;2023-03-30T05:42:16;12.80;94.80
21770;DHT22;11046;49.558;8.674;2023-03-30T05:45:35;12.80;95.00
21770;DHT22;11046;49.558;8.674;2023-03-30T05:48:44;12.80;95.10
21770;DHT22;11046;49.558;8.674;2023-03-30T05:52:01;12.80;95.30
21770;DHT22;11046;49.558;8.674;2023-03-30T05:55:30;12.80;95.40
21770;DHT22;11046;49.558;8.674;2023-03-30T05:58:43;12.90;95.50
21770;DHT22;11046;49.558;8.674;2023-03-30T06:01:49;12.90;95.60
21770;DHT22;11046;49.558;8.674;2023-03-30T06:04:50;12.80;95.90
21770;DHT22;11046;49.558;8.674;2023-03-30T06:07:51;12.60;96.30
21770;DHT22;11046;49.558;8.674;2023-03-30T06:10:53;12.60;96.50
21770;DHT22;11046;49.558;8.674;2023-03-30T06:13:57;12.40;96.70
21770;DHT22;11046;49.558;8.674;2023-03-30T06:16:58;12.40;96.80
21770;DHT22;11046;49.558;8.674;2023-03-30T06:19:59;12.40;97.00
21770;DHT22;11046;49.558;8.674;2023-03-30T06:23:00;12.30;97.30
21770;DHT22;11046;49.558;8.674;2023-03-30T06:26:01;12.30;97.50
21770;DHT22;11046;49.558;8.674;2023-03-30T06:29:06;12.30;97.70
21770;DHT22;11046;49.558;8.674;2023-03-30T06:32:07;12.30;98.00
21770;DHT22;11046;49.558;8.674;2023-03-30T06:35:44;12.30;98.10
21770;DHT22;11046;49.558;8.674;2023-03-30T06:38:45;12.30;98.20
21770;DHT22;11046;49.558;8.674;2023-03-30T06:41:50;12.30;98.20
21770;DHT22;11046;49.558;8.674;2023-03-30T06:45:07;12.20;98.40
21770;DHT22;11046;49.558;8.674;2023-03-30T06:48:08;12.20;98.60
21770;DHT22;11046;49.558;8.674;2023-03-30T06:51:12;12.10;98.70
21770;DHT22;11046;49.558;8.674;2023-03-30T06:54:14;12.10;99.10
21770;DHT22;11046;49.558;8.674;2023-03-30T06:57:24;12.10;99.30
21770;DHT22;11046;49.558;8.674;2023-03-30T07:00:26;12.00;99.50
21770;DHT22;11046;49.558;8.674;2023-03-30T07:04:06;12.00;99.70
21770;DHT22;11046;49.558;8.674;2023-03-30T07:07:26;12.10;99.90
21770;DHT22;11046;49.558;8.674;2023-03-30T07:10:27;12.10;99.90
21770;DHT22;11046;49.558;8.674;2023-03-30T07:13:30;12.10;99.90
21770;DHT22;11046;49.558;8.674;2023-03-30T07:16:31;12.10;99.90
21770;DHT22;11046;49.558;8.674;2023-03-30T07:19:31;12.10;99.90
21770;DHT22;11046;49.558;8.674;2023-03-30T07:22:32;12.20;99.90
21770;DHT22;11046;49.558;8.674;2023-03-30T07:25:33;12.20;99.90
21770;DHT22;11046;49.558;8.674;2023-03-30T07:28:40;12.20;99.90
21770;DHT22;11046;49.558;8.674;2023-03-30T07:31:41;12.20;99.90
21770;DHT22;11046;49.558;8.674;2023-03-30T07:34:44;12.10;99.90
21770;DHT22;11046;49.558;8.674;2023-03-30T07:37:45;12.10;99.90
21770;DHT22;11046;49.558;8.674;2023-03-30T07:40:46;12.00;99.90
21770;DHT22;11046;49.558;8.674;2023-03-30T07:43:49;12.00;99.90
21770;DHT22;11046;49.558;8.674;2023-03-30T07:46:50;12.00;99.90
21770;DHT22;11046;49.558;8.674;2023-03-30T07:49:56;12.00;99.90
21770;DHT22;11046;49.558;8.674;2023-03-30T07:52:58;12.00;99.90
21770;DHT22;11046;49.558;8.674;2023-03-30T07:55:59;12.00;99.90
21770;DHT22;11046;49.558;8.674;2023-03-30T07:59:08;12.00;99.90
21770;DHT22;11046;49.558;8.674;2023-03-30T08:02:12;12.00;99.90
21770;DHT22;11046;49.558;8.674;2023-03-30T08:05:21;12.00;99.90
21770;DHT22;11046;49.558;8.674;2023-03-30T08:08:32;11.90;99.90
21770;DHT22;11046;49.558;8.674;2023-03-30T08:11:34;11.90;99.90
21770;DHT22;11046;49.558;8.674;2023-03-30T08:14:36;11.90;99.90
21770;DHT22;11046;49.558;8.674;2023-03-30T08:17:36;12.00;99.90
21770;DHT22;11046;49.558;8.674;2023-03-30T08:20:38;12.00;99.90
21770;DHT22;11046;49.558;8.674;2023-03-30T08:23:39;12.00;99.90
21770;DHT22;11046;49.558;8.674;2023-03-30T08:26:40;12.00;99.90
21770;DHT22;11046;49.558;8.674;2023-03-30T08:29:41;12.20;99.90
21770;DHT22;11046;49.558;8.674;2023-03-30T08:32:41;12.30;99.90
21770;DHT22;11046;49.558;8.674;2023-03-30T08:35:46;12.40;99.90
21770;DHT22;11046;49.558;8.674;2023-03-30T08:38:47;12.40;99.90
21770;DHT22;11046;49.558;8.674;2023-03-30T08:42:15;12.40;99.90
21770;DHT22;11046;49.558;8.674;2023-03-30T08:45:18;12.40;99.90
21770;DHT22;11046;49.558;8.674;2023-03-30T08:48:22;12.50;99.90
21770;DHT22;11046;49.558;8.674;2023-03-30T08:51:28;12.50;99.90
21770;DHT22;11046;49.558;8.674;2023-03-30T08:54:31;12.60;99.90
21770;DHT22;11046;49.558;8.674;2023-03-30T08:57:55;12.50;99.90
21770;DHT22;11046;49.558;8.674;2023-03-30T09:07:46;12.50;99.90
21770;DHT22;11046;49.558;8.674;2023-03-30T09:10:57;12.60;99.90
21770;DHT22;11046;49.558;8.674;2023-03-30T09:14:00;12.50;99.90
21770;DHT22;11046;49.558;8.674;2023-03-30T09:17:11;12.60;99.90
21770;DHT22;11046;49.558;8.674;2023-03-30T09:20:26;12.60;99.90
21770;DHT22;11046;49.558;8.674;2023-03-30T09:23:28;12.60;99.90
21770;DHT22;11046;49.558;8.674;2023-03-30T09:27:16;12.60;99.90
21770;DHT22;11046;49.558;8.674;2023-03-30T09:30:18;12.60;99.90
21770;DHT22;11046;49.558;8.674;2023-03-30T09:36:34;12.80;99.90
21770;DHT22;11046;49.558;8.674;2023-03-30T09:39:37;12.80;99.90
21770;DHT22;11046;49.558;8.674;2023-03-30T09:42:46;12.80;99.90
21770;DHT22;11046;49.558;8.674;2023-03-30T09:45:50;12.90;99.90
21770;DHT22;11046;49.558;8.674;2023-03-30T09:48:51;13.00;99.90
21770;DHT22;11046;49.558;8.674;2023-03-30T09:52:02;13.00;99.90
21770;DHT22;11046;49.558;8.674;2023-03-30T09:58:27;13.40;99.90
21770;DHT22;11046;49.558;8.674;2023-03-30T10:01:35;13.60;99.90
21770;DHT22;11046;49.558;8.674;2023-03-30T10:07:58;13.90;99.90
21770;DHT22;11046;49.558;8.674;2023-03-30T10:11:00;14.00;99.90
21770;DHT22;11046;49.558;8.674;2023-03-30T10:14:03;14.00;99.90
21770;DHT22;11046;49.558;8.674;2023-03-30T10:17:04;14.00;99.90
21770;DHT22;11046;49.558;8.674;2023-03-30T10:20:25;14.10;99.90
21770;DHT22;11046;49.558;8.674;2023-03-30T10:23:30;14.40;99.90
21770;DHT22;11046;49.558;8.674;2023-03-30T10:26:35;14.60;99.90
21770;DHT22;11046;49.558;8.674;2023-03-30T10:29:36;14.80;99.90
21770;DHT22;11046;49.558;8.674;2023-03-30T10:32:37;14.80;99.60
21770;DHT22;11046;49.558;8.674;2023-03-30T10:35:38;14.70;99.20
21770;DHT22;11046;49.558;8.674;2023-03-30T10:38:39;14.60;99.00
21770;DHT22;11046;49.558;8.674;2023-03-30T10:41:41;14.50;98.90
21770;DHT22;11046;49.558;8.674;2023-03-30T10:44:46;14.40;98.90
21770;DHT22;11046;49.558;8.674;2023-03-30T10:48:15;14.30;99.00
21770;DHT22;11046;49.558;8.674;2023-03-30T10:51:35;14.20;99.20
21770;DHT22;11046;49.558;8.674;2023-03-30T10:54:44;14.20;99.30
21770;DHT22;11046;49.558;8.674;2023-03-30T11:04:22;14.40;99.40
21770;DHT22;11046;49.558;8.674;2023-03-30T11:10:54;14.50;98.80
21770;DHT22;11046;49.558;8.674;2023-03-30T11:14:00;14.50;97.90
21770;DHT22;11046;49.558;8.674;2023-03-30T11:17:15;14.50;97.50
21770;DHT22;11046;49.558;8.674;2023-03-30T11:20:26;14.60;97.40
21770;DHT22;11046;49.558;8.674;2023-03-30T11:23:43;14.80;97.00
21770;DHT22;11046;49.558;8.674;2023-03-30T11:26:52;15.20;96.90
21770;DHT22;11046;49.558;8.674;2023-03-30T11:30:01;15.50;96.70
21770;DHT22;11046;49.558;8.674;2023-03-30T11:33:24;15.70;96.00
21770;DHT22;11046;49.558;8.674;2023-03-30T11:36:35;16.00;95.50
21770;DHT22;11046;49.558;8.674;2023-03-30T11:39:40;16.10;95.70
21770;DHT22;11046;49.558;8.674;2023-03-30T11:42:45;16.20;95.20
21770;DHT22;11046;49.558;8.674;2023-03-30T11:49:15;16.20;94.50
21770;DHT22;11046;49.558;8.674;2023-03-30T11:55:35;16.10;94.50
21770;DHT22;11046;49.558;8.674;2023-03-30T12:02:13;16.00;94.40
21770;DHT22;11046;49.558;8.674;2023-03-30T12:05:22;16.00;94.00
21770;DHT22;11046;49.558;8.674;2023-03-30T12:08:40;16.10;93.60
21770;DHT22;11046;49.558;8.674;2023-03-30T12:24:50;15.60;91.80
21770;DHT22;11046;49.558;8.674;2023-03-30T12:28:02;15.50;92.20
21770;DHT22;11046;49.558;8.674;2023-03-30T12:31:03;15.40;92.60
21770;DHT22;11046;49.558;8.674;2023-03-30T12:34:06;15.30;92.60
21770;DHT22;11046;49.558;8.674;2023-03-30T12:37:31;15.20;92.80
21770;DHT22;11046;49.558;8.674;2023-03-30T12:40:32;15.20;93.20
21770;DHT22;11046;49.558;8.674;2023-03-30T12:47:00;15.10;94.00
21770;DHT22;11046;49.558;8.674;2023-03-30T12:53:28;14.90;94.50
21770;DHT22;11046;49.558;8.674;2023-03-30T12:56:37;14.80;94.70
21770;DHT22;11046;49.558;8.674;2023-03-30T13:06:56;15.30;95.70
21770;DHT22;11046;49.558;8.674;2023-03-30T13:10:00;15.20;95.50
21770;DHT22;11046;49.558;8.674;2023-03-30T13:13:02;15.20;95.00
21770;DHT22;11046;49.558;8.674;2023-03-30T13:16:03;15.00;95.20
21770;DHT22;11046;49.558;8.674;2023-03-30T13:22:31;14.80;94.50
21770;DHT22;11046;49.558;8.674;2023-03-30T13:25:52;14.80;94.70
21770;DHT22;11046;49.558;8.674;2023-03-30T13:39:11;16.00;94.80
21770;DHT22;11046;49.558;8.674;2023-03-30T13:46:00;17.10;94.30
21770;DHT22;11046;49.558;8.674;2023-03-30T13:52:18;17.60;91.50
21770;DHT22;11046;49.558;8.674;2023-03-30T13:58:31;18.00;90.50
21770;DHT22;11046;49.558;8.674;2023-03-30T14:01:34;18.50;89.90
21770;DHT22;11046;49.558;8.674;2023-03-30T14:04:35;18.80;86.70
21770;DHT22;11046;49.558;8.674;2023-03-30T14:07:45;18.70;83.50
21770;DHT22;11046;49.558;8.674;2023-03-30T14:10:49;18.40;83.20
21770;DHT22;11046;49.558;8.674;2023-03-30T14:13:51;18.30;82.40
21770;DHT22;11046;49.558;8.674;2023-03-30T14:16:53;18.60;80.90
21770;DHT22;11046;49.558;8.674;2023-03-30T14:26:29;18.20;74.00
21770;DHT22;11046;49.558;8.674;2023-03-30T14:29:30;18.00;74.10
21770;DHT22;11046;49.558;8.674;2023-03-30T14:32:32;17.80;74.40
21770;DHT22;11046;49.558;8.674;2023-03-30T14:35:35;17.60;74.40
21770;DHT22;11046;49.558;8.674;2023-03-30T14:38:41;17.40;74.50
21770;DHT22;11046;49.558;8.674;2023-03-30T14:41:43;17.00;74.70
21770;DHT22;11046;49.558;8.674;2023-03-30T14:44:47;16.70;76.20
21770;DHT22;11046;49.558;8.674;2023-03-30T14:47:48;16.10;78.80
21770;DHT22;11046;49.558;8.674;2023-03-30T14:50:49;15.60;81.00
21770;DHT22;11046;49.558;8.674;2023-03-30T14:53:51;15.30;83.00
21770;DHT22;11046;49.558;8.674;2023-03-30T14:56:59;15.30;84.10
21770;DHT22;11046;49.558;8.674;2023-03-30T15:00:03;15.50;84.50
21770;DHT22;11046;49.558;8.674;2023-03-30T15:03:23;15.70;84.50
21770;DHT22;11046;49.558;8.674;2023-03-30T15:06:29;15.90;84.30
21770;DHT22;11046;49.558;8.674;2023-03-30T15:09:36;16.10;84.50
21770;DHT22;11046;49.558;8.674;2023-03-30T15:12:39;16.10;83.80
21770;DHT22;11046;49.558;8.674;2023-03-30T15:15:41;16.20;83.50
21770;DHT22;11046;49.558;8.674;2023-03-30T15:18:42;16.30;83.40
21770;DHT22;11046;49.558;8.674;2023-03-30T15:21:44;16.50;83.00
21770;DHT22;11046;49.558;8.674;2023-03-30T15:24:45;16.50;82.50
21770;DHT22;11046;49.558;8.674;2023-03-30T15:28:14;16.60;82.20
21770;DHT22;11046;49.558;8.674;2023-03-30T15:31:15;16.60;81.60
21770;DHT22;11046;49.558;8.674;2023-03-30T15:34:17;16.60;81.90
21770;DHT22;11046;49.558;8.674;2023-03-30T15:37:21;16.80;81.50
21770;DHT22;11046;49.558;8.674;2023-03-30T15:40:34;16.80;80.40
21770;DHT22;11046;49.558;8.674;2023-03-30T15:43:36;16.90;79.40
21770;DHT22;11046;49.558;8.674;2023-03-30T15:46:57;16.90;78.00
21770;DHT22;11046;49.558;8.674;2023-03-30T15:49:58;16.70;76.60
21770;DHT22;11046;49.558;8.674;2023-03-30T15:53:00;16.60;76.60
21770;DHT22;11046;49.558;8.674;2023-03-30T15:56:02;16.60;76.00
21770;DHT22;11046;49.558;8.674;2023-03-30T15:59:03;16.50;75.70
21770;DHT22;11046;49.558;8.674;2023-03-30T16:02:20;16.40;76.10
21770;DHT22;11046;49.558;8.674;2023-03-30T16:05:24;16.30;76.30
21770;DHT22;11046;49.558;8.674;2023-03-30T16:08:28;16.30;76.40
21770;DHT22;11046;49.558;8.674;2023-03-30T16:11:29;16.20;76.10
21770;DHT22;11046;49.558;8.674;2023-03-30T16:14:31;16.20;75.50
21770;DHT22;11046;49.558;8.674;2023-03-30T16:17:33;16.10;75.00
21770;DHT22;11046;49.558;8.674;2023-03-30T16:20:35;15.90;74.50
21770;DHT22;11046;49.558;8.674;2023-03-30T16:23:37;15.90;74.10
21770;DHT22;11046;49.558;8.674;2023-03-30T16:26:38;16.00;73.90
21770;DHT22;11046;49.558;8.674;2023-03-30T16:29:39;16.20;73.00
21770;DHT22;11046;49.558;8.674;2023-03-30T16:32:41;16.20;72.30
21770;DHT22;11046;49.558;8.674;2023-03-30T16:35:48;16.10;72.80
21770;DHT22;11046;49.558;8.674;2023-03-30T16:38:52;16.10;72.90
21770;DHT22;11046;49.558;8.674;2023-03-30T16:41:57;16.10;73.40
21770;DHT22;11046;49.558;8.674;2023-03-30T16:45:01;15.90;72.80
21770;DHT22;11046;49.558;8.674;2023-03-30T16:48:03;15.80;73.10
21770;DHT22;11046;49.558;8.674;2023-03-30T16:51:06;15.80;73.50
21770;DHT22;11046;49.558;8.674;2023-03-30T16:54:09;15.70;73.60
21770;DHT22;11046;49.558;8.674;2023-03-30T16:57:19;15.60;74.10
21770;DHT22;11046;49.558;8.674;2023-03-30T17:00:36;15.50;74.50
21770;DHT22;11046;49.558;8.674;2023-03-30T17:03:40;15.40;76.20
21770;DHT22;11046;49.558;8.674;2023-03-30T17:06:47;15.10;79.10
21770;DHT22;11046;49.558;8.674;2023-03-30T17:09:51;14.80;80.90
21770;DHT22;11046;49.558;8.674;2023-03-30T17:12:54;14.40;82.70
21770;DHT22;11046;49.558;8.674;2023-03-30T17:15:56;14.20;83.70
21770;DHT22;11046;49.558;8.674;2023-03-30T17:19:00;14.20;84.40
21770;DHT22;11046;49.558;8.674;2023-03-30T17:22:07;14.00;85.20
21770;DHT22;11046;49.558;8.674;2023-03-30T17:25:13;13.90;86.00
21770;DHT22;11046;49.558;8.674;2023-03-30T17:28:26;13.90;86.30
21770;DHT22;11046;49.558;8.674;2023-03-30T17:31:33;14.00;86.20
21770;DHT22;11046;49.558;8.674;2023-03-30T17:34:38;13.90;85.90
21770;DHT22;11046;49.558;8.674;2023-03-30T17:37:42;13.80;86.00
21770;DHT22;11046;49.558;8.674;2023-03-30T17:40:43;13.80;86.10
21770;DHT22;11046;49.558;8.674;2023-03-30T17:43:49;13.90;86.00
21770;DHT22;11046;49.558;8.674;2023-03-30T17:47:02;13.80;86.30
21770;DHT22;11046;49.558;8.674;2023-03-30T17:50:32;13.80;86.60
21770;DHT22;11046;49.558;8.674;2023-03-30T17:53:38;13.70;87.20
21770;DHT22;11046;49.558;8.674;2023-03-30T17:57:06;13.70;86.90
21770;DHT22;11046;49.558;8.674;2023-03-30T18:00:23;13.60;87.40
21770;DHT22;11046;49.558;8.674;2023-03-30T18:03:27;13.50;87.50
21770;DHT22;11046;49.558;8.674;2023-03-30T18:06:44;13.40;87.70
21770;DHT22;11046;49.558;8.674;2023-03-30T18:09:50;13.30;87.80
21770;DHT22;11046;49.558;8.674;2023-03-30T18:12:52;13.20;88.10
21770;DHT22;11046;49.558;8.674;2023-03-30T18:16:01;13.20;88.90
21770;DHT22;11046;49.558;8.674;2023-03-30T18:19:03;13.10;89.00
21770;DHT22;11046;49.558;8.674;2023-03-30T18:22:07;13.10;89.30
21770;DHT22;11046;49.558;8.674;2023-03-30T18:25:08;13.00;89.50
21770;DHT22;11046;49.558;8.674;2023-03-30T18:28:20;13.00;90.00
21770;DHT22;11046;49.558;8.674;2023-03-30T18:31:23;12.90;90.40
21770;DHT22;11046;49.558;8.674;2023-03-30T18:34:27;12.80;90.40
21770;DHT22;11046;49.558;8.674;2023-03-30T18:37:36;12.80;90.70
21770;DHT22;11046;49.558;8.674;2023-03-30T18:40:49;12.70;91.20
21770;DHT22;11046;49.558;8.674;2023-03-30T18:43:52;12.70;91.50
21770;DHT22;11046;49.558;8.674;2023-03-30T18:46:56;12.60;91.90
21770;DHT22;11046;49.558;8.674;2023-03-30T18:49:57;12.50;92.20
21770;DHT22;11046;49.558;8.674;2023-03-30T18:53:06;12.50;92.40
21770;DHT22;11046;49.558;8.674;2023-03-30T18:56:10;12.40;92.80
21770;DHT22;11046;49.558;8.674;2023-03-30T18:59:13;12.40;93.10
21770;DHT22;11046;49.558;8.674;2023-03-30T19:02:13;12.30;93.40
21770;DHT22;11046;49.558;8.674;2023-03-30T19:05:15;12.30;93.60
21770;DHT22;11046;49.558;8.674;2023-03-30T19:08:19;12.20;93.90
21770;DHT22;11046;49.558;8.674;2023-03-30T19:11:23;12.20;94.20
21770;DHT22;11046;49.558;8.674;2023-03-30T19:14:26;12.00;94.50
21770;DHT22;11046;49.558;8.674;2023-03-30T19:17:28;12.00;94.90
21770;DHT22;11046;49.558;8.674;2023-03-30T19:20:32;11.90;95.00
21770;DHT22;11046;49.558;8.674;2023-03-30T19:23:35;11.90;95.20
21770;DHT22;11046;49.558;8.674;2023-03-30T19:26:35;11.90;95.10
21770;DHT22;11046;49.558;8.674;2023-03-30T19:29:38;11.80;95.20
21770;DHT22;11046;49.558;8.674;2023-03-30T19:32:39;11.90;95.20
21770;DHT22;11046;49.558;8.674;2023-03-30T19:35:42;11.90;95.40
21770;DHT22;11046;49.558;8.674;2023-03-30T19:38:44;11.80;95.40
21770;DHT22;11046;49.558;8.674;2023-03-30T19:41:46;11.80;95.40
21770;DHT22;11046;49.558;8.674;2023-03-30T19:44:47;11.90;95.30
21770;DHT22;11046;49.558;8.674;2023-03-30T19:47:48;11.80;95.40
21770;DHT22;11046;49.558;8.674;2023-03-30T19:50:50;11.70;95.40
21770;DHT22;11046;49.558;8.674;2023-03-30T19:53:51;11.70;95.50
21770;DHT22;11046;49.558;8.674;2023-03-30T19:56:52;11.60;95.50
21770;DHT22;11046;49.558;8.674;2023-03-30T19:59:53;11.60;95.60
21770;DHT22;11046;49.558;8.674;2023-03-30T20:02:54;11.60;95.50
21770;DHT22;11046;49.558;8.674;2023-03-30T20:05:57;11.60;95.40
21770;DHT22;11046;49.558;8.674;2023-03-30T20:08:58;11.50;95.50
21770;DHT22;11046;49.558;8.674;2023-03-30T20:11:59;11.50;95.40
21770;DHT22;11046;49.558;8.674;2023-03-30T20:15:02;11.40;95.50
21770;DHT22;11046;49.558;8.674;2023-03-30T20:18:06;11.30;95.60
21770;DHT22;11046;49.558;8.674;2023-03-30T20:21:06;11.10;95.90
21770;DHT22;11046;49.558;8.674;2023-03-30T20:24:08;11.10;95.90
21770;DHT22;11046;49.558;8.674;2023-03-30T20:27:09;11.10;95.90
21770;DHT22;11046;49.558;8.674;2023-03-30T20:30:11;11.10;95.90
21770;DHT22;11046;49.558;8.674;2023-03-30T20:33:13;11.00;95.90
21770;DHT22;11046;49.558;8.674;2023-03-30T20:36:15;10.80;96.00
21770;DHT22;11046;49.558;8.674;2023-03-30T20:39:16;10.80;96.10
21770;DHT22;11046;49.558;8.674;2023-03-30T20:42:17;10.80;96.10
21770;DHT22;11046;49.558;8.674;2023-03-30T20:45:25;10.70;96.10
21770;DHT22;11046;49.558;8.674;2023-03-30T20:48:30;10.70;96.10
21770;DHT22;11046;49.558;8.674;2023-03-30T20:51:39;10.60;96.30
21770;DHT22;11046;49.558;8.674;2023-03-30T20:54:43;10.60;96.20
21770;DHT22;11046;49.558;8.674;2023-03-30T20:57:45;10.50;96.20
21770;DHT22;11046;49.558;8.674;2023-03-30T21:00:48;10.50;96.40
21770;DHT22;11046;49.558;8.674;2023-03-30T21:03:54;10.50;96.60
21770;DHT22;11046;49.558;8.674;2023-03-30T21:06:57;10.50;96.60
21770;DHT22;11046;49.558;8.674;2023-03-30T21:09:58;10.50;96.70
21770;DHT22;11046;49.558;8.674;2023-03-30T21:12:59;10.50;96.80
21770;DHT22;11046;49.558;8.674;2023-03-30T21:16:02;10.50;96.80
21770;DHT22;11046;49.558;8.674;2023-03-30T21:19:04;10.60;97.00
21770;DHT22;11046;49.558;8.674;2023-03-30T21:22:05;10.70;96.90
21770;DHT22;11046;49.558;8.674;2023-03-30T21:25:08;10.80;96.90
21770;DHT22;11046;49.558;8.674;2023-03-30T21:28:09;10.70;97.00
21770;DHT22;11046;49.558;8.674;2023-03-30T21:31:13;10.80;97.10
21770;DHT22;11046;49.558;8.674;2023-03-30T21:34:15;10.70;97.00
21770;DHT22;11046;49.558;8.674;2023-03-30T21:37:18;10.70;97.10
21770;DHT22;11046;49.558;8.674;2023-03-30T21:40:22;10.70;97.20
21770;DHT22;11046;49.558;8.674;2023-03-30T21:43:24;10.60;97.30
21770;DHT22;11046;49.558;8.674;2023-03-30T21:46:27;10.50;97.40
21770;DHT22;11046;49.558;8.674;2023-03-30T21:49:28;10.50;97.50